createdAt,value
2022-09-26T00:01:27.116Z,32.45
2022-09-26T00:03:56.377Z,34.55
2022-09-26T00:06:25.175Z,35.63
2022-09-26T00:08:53.913Z,31.45
2022-09-26T00:11:25.163Z,31.58
2022-09-26T00:13:53.757Z,31.42
2022-09-26T00:16:22.214Z,32.08
2022-09-26T00:18:52.586Z,31.33
2022-09-26T00:21:21.001Z,30.67
2022-09-26T00:23:49.423Z,33.42
2022-09-26T00:26:18.583Z,31.63
2022-09-26T00:28:47.188Z,30.85
2022-09-26T00:31:18.970Z,32.20
2022-09-26T00:33:47.627Z,32.30
2022-09-26T00:36:17.883Z,30.40
2022-09-26T00:38:46.713Z,29.65
2022-09-26T00:41:16.438Z,29.50
2022-09-26T00:43:46.158Z,29.92
2022-09-26T00:46:27.748Z,27.90
2022-09-26T00:49:03.461Z,32.80
2022-09-26T00:51:33.545Z,30.75
2022-09-26T00:54:02.327Z,29.48
2022-09-26T00:56:33.449Z,29.83
2022-09-26T00:59:03.902Z,31.75
2022-09-26T01:01:32.810Z,28.58
2022-09-26T01:04:01.178Z,28.77
2022-09-26T01:06:29.875Z,26.80
2022-09-26T01:09:00.975Z,27.38
2022-09-26T01:11:31.764Z,27.75
2022-09-26T01:14:00.037Z,27.63
2022-09-26T01:16:28.895Z,27.85
2022-09-26T01:18:57.417Z,30.15
2022-09-26T01:21:44.622Z,27.48
2022-09-26T01:24:38.394Z,26.67
2022-09-26T01:27:16.002Z,25.40
2022-09-26T01:30:22.827Z,26.30
2022-09-26T01:33:23.569Z,27.58
2022-09-26T01:36:09.576Z,25.75
2022-09-26T01:38:44.738Z,25.77
2022-09-26T01:41:24.670Z,25.00
2022-09-26T01:43:57.391Z,26.33
2022-09-26T01:46:29.063Z,26.23
2022-09-26T01:48:59.909Z,24.10
2022-09-26T01:51:30.194Z,25.40
2022-09-26T01:54:01.339Z,24.05
2022-09-26T01:56:31.787Z,24.23
2022-09-26T01:59:01.279Z,25.67
2022-09-26T02:01:31.241Z,24.40
2022-09-26T02:04:03.248Z,23.83
2022-09-26T02:06:33.812Z,24.83
2022-09-26T02:09:04.059Z,24.45
2022-09-26T02:11:32.913Z,24.10
2022-09-26T02:14:03.689Z,23.90
2022-09-26T02:16:33.825Z,23.13
2022-09-26T02:19:05.757Z,24.15
2022-09-26T02:21:34.368Z,23.90
2022-09-26T02:24:03.122Z,24.25
2022-09-26T02:26:31.516Z,23.88
2022-09-26T02:29:01.839Z,22.45
2022-09-26T02:31:36.911Z,21.70
2022-09-26T02:34:07.762Z,25.67
2022-09-26T02:36:36.925Z,21.50
2022-09-26T02:39:06.442Z,23.73
2022-09-26T02:42:02.335Z,21.20
2022-09-26T02:44:39.859Z,23.55
2022-09-26T02:47:35.585Z,26.75
2022-09-26T02:50:22.664Z,22.95
2022-09-26T02:52:56.003Z,21.80
2022-09-26T02:55:39.259Z,21.00
2022-09-26T02:58:11.962Z,21.42
2022-09-26T03:00:47.685Z,21.45
2022-09-26T03:03:21.340Z,21.17
2022-09-26T03:05:51.967Z,21.83
2022-09-26T03:08:21.806Z,22.30
2022-09-26T03:10:51.765Z,21.33
2022-09-26T03:13:21.953Z,21.52
2022-09-26T03:15:53.272Z,22.90
2022-09-26T03:18:25.579Z,29.88
2022-09-26T03:20:56.098Z,20.73
2022-09-26T03:23:25.965Z,20.40
2022-09-26T03:26:02.048Z,20.73
2022-09-26T03:28:37.471Z,25.55
2022-09-26T03:31:07.542Z,19.83
2022-09-26T03:33:52.574Z,20.70
2022-09-26T03:36:22.998Z,20.52
2022-09-26T03:38:51.589Z,19.35
2022-09-26T03:41:35.825Z,21.35
2022-09-26T03:44:09.199Z,21.25
2022-09-26T03:47:00.695Z,19.45
2022-09-26T03:49:29.034Z,18.83
2022-09-26T03:51:59.209Z,20.90
2022-09-26T03:54:28.144Z,21.92
2022-09-26T03:56:57.246Z,20.02
2022-09-26T03:59:26.147Z,19.95
2022-09-26T04:01:54.782Z,18.30
2022-09-26T04:04:23.363Z,19.33
2022-09-26T04:06:52.128Z,19.20
2022-09-26T04:09:23.742Z,17.95
2022-09-26T04:11:53.303Z,17.98
2022-09-26T04:14:22.776Z,17.50
2022-09-26T04:16:58.561Z,19.73
2022-09-26T04:19:35.305Z,16.42
2022-09-26T04:22:04.629Z,16.05
2022-09-26T04:24:36.719Z,16.45
2022-09-26T04:27:05.278Z,16.65
2022-09-26T04:29:34.667Z,15.88
2022-09-26T04:32:26.027Z,16.75
2022-09-26T04:35:12.702Z,15.77
2022-09-26T04:37:42.122Z,16.80
2022-09-26T04:40:13.452Z,15.80
2022-09-26T04:42:51.923Z,12.85
2022-09-26T04:45:21.713Z,17.70
2022-09-26T04:47:50.783Z,16.83
2022-09-26T04:50:25.100Z,12.98
2022-09-26T04:53:07.643Z,16.48
2022-09-26T04:55:45.330Z,14.77
2022-09-26T04:58:15.443Z,13.32
2022-09-26T05:00:48.186Z,14.82
2022-09-26T05:03:20.665Z,18.60
2022-09-26T05:05:50.604Z,16.88
2022-09-26T05:08:19.070Z,20.15
2022-09-26T05:10:53.545Z,23.02
2022-09-26T05:13:22.048Z,24.20
2022-09-26T05:15:54.594Z,23.10
2022-09-26T05:18:23.619Z,23.02
2022-09-26T05:20:52.376Z,22.58
2022-09-26T05:23:35.172Z,22.67
2022-09-26T05:26:23.696Z,24.25
2022-09-26T05:28:53.753Z,30.85
2022-09-26T05:31:29.320Z,28.52
2022-09-26T05:33:58.115Z,29.45
2022-09-26T05:36:26.521Z,28.30
2022-09-26T05:38:55.119Z,26.85
2022-09-26T05:41:24.095Z,29.58
2022-09-26T05:43:54.006Z,35.13
2022-09-26T05:46:22.334Z,31.40
2022-09-26T05:48:53.610Z,30.17
2022-09-26T05:51:23.717Z,30.45
2022-09-26T05:53:52.299Z,33.30
2022-09-26T05:56:26.054Z,30.08
2022-09-26T05:59:09.806Z,27.38
2022-09-26T06:01:58.478Z,29.90
2022-09-26T06:04:43.329Z,30.70
2022-09-26T06:07:28.263Z,29.75
2022-09-26T06:09:56.687Z,27.23
2022-09-26T06:12:51.175Z,30.67
2022-09-26T06:15:19.675Z,27.55
2022-09-26T06:17:48.378Z,28.23
2022-09-26T06:20:17.361Z,29.70
2022-09-26T06:22:45.806Z,30.48
2022-09-26T06:25:14.738Z,27.60
2022-09-26T06:27:44.191Z,28.45
2022-09-26T06:30:15.143Z,29.95
2022-09-26T06:32:46.615Z,30.63
2022-09-26T06:35:35.433Z,30.20
2022-09-26T06:38:11.899Z,30.42
2022-09-26T06:40:40.487Z,30.58
2022-09-26T06:43:09.045Z,31.02
2022-09-26T06:46:08.812Z,31.15
2022-09-26T06:48:57.503Z,30.25
2022-09-26T06:51:42.927Z,32.30
2022-09-26T06:54:12.011Z,30.42
2022-09-26T06:56:40.397Z,30.25
2022-09-26T06:59:08.949Z,32.05
2022-09-26T07:01:44.789Z,32.50
2022-09-26T07:04:31.804Z,30.20
2022-09-26T07:07:18.322Z,27.45
2022-09-26T07:09:47.349Z,31.20
2022-09-26T07:12:42.051Z,27.77
2022-09-26T07:15:11.679Z,28.23
2022-09-26T07:17:41.738Z,31.90
2022-09-26T07:20:15.104Z,28.15
2022-09-26T07:23:10.846Z,27.27
2022-09-26T07:25:40.635Z,26.17
2022-09-26T07:28:10.573Z,29.23
2022-09-26T07:30:45.580Z,29.90
2022-09-26T07:33:22.105Z,28.45
2022-09-26T07:35:53.364Z,27.88
2022-09-26T07:38:23.536Z,26.13
2022-09-26T07:40:55.053Z,27.48
2022-09-26T07:43:37.747Z,26.92
2022-09-26T07:46:30.736Z,25.08
2022-09-26T07:49:17.892Z,24.60
2022-09-26T07:52:01.335Z,26.55
2022-09-26T07:54:40.658Z,26.33
2022-09-26T07:57:41.510Z,24.80
2022-09-26T08:00:45.152Z,23.45
2022-09-26T08:03:33.927Z,24.33
2022-09-26T08:06:08.160Z,24.30
2022-09-26T08:08:37.047Z,24.20
2022-09-26T08:11:24.045Z,23.80
2022-09-26T08:14:09.483Z,22.67
2022-09-26T08:16:58.010Z,24.42
2022-09-26T08:19:26.572Z,21.80
2022-09-26T08:21:56.645Z,23.85
2022-09-26T08:24:25.417Z,22.88
2022-09-26T08:27:18.545Z,21.63
2022-09-26T08:29:49.659Z,24.17
2022-09-26T08:32:18.306Z,21.67
2022-09-26T08:34:47.407Z,21.33
2022-09-26T08:37:35.737Z,22.13
2022-09-26T08:40:23.407Z,23.38
2022-09-26T08:43:16.499Z,21.75
2022-09-26T08:46:32.900Z,22.02
2022-09-26T08:49:39.718Z,22.30
2022-09-26T08:52:16.032Z,19.67
2022-09-26T08:54:47.097Z,19.08
2022-09-26T08:57:20.228Z,20.42
2022-09-26T08:59:48.990Z,19.17
2022-09-26T09:02:23.712Z,22.50
2022-09-26T09:05:06.301Z,19.60
2022-09-26T09:07:41.383Z,20.40
2022-09-26T09:10:18.205Z,20.60
2022-09-26T09:13:04.089Z,19.63
2022-09-26T09:15:59.450Z,19.92
2022-09-26T09:18:52.294Z,19.70
2022-09-26T09:22:02.328Z,22.95
2022-09-26T09:24:53.499Z,28.35
2022-09-26T09:30:21.291Z,37.67
2022-09-26T09:33:13.407Z,41.42
2022-09-26T09:35:50.052Z,42.80
2022-09-26T09:38:49.214Z,46.45
2022-09-26T09:41:45.637Z,50.67
2022-09-26T09:44:23.144Z,43.25
2022-09-26T09:46:51.705Z,44.63
2022-09-26T09:49:21.997Z,48.70
2022-09-26T09:51:57.745Z,46.13
2022-09-26T09:54:36.439Z,44.78
2022-09-26T09:57:18.149Z,45.70
2022-09-26T09:59:56.214Z,45.10
2022-09-26T10:02:32.071Z,45.00
2022-09-26T10:05:06.532Z,47.10
2022-09-26T10:07:34.950Z,42.67
2022-09-26T10:10:42.550Z,45.00
2022-09-26T10:13:32.793Z,44.55
2022-09-26T10:16:25.386Z,43.10
2022-09-26T10:19:06.448Z,40.92
2022-09-26T10:21:35.880Z,42.20
2022-09-26T10:24:05.152Z,41.38
2022-09-26T10:26:47.405Z,39.40
2022-09-26T10:29:35.439Z,38.67
2022-09-26T10:32:05.895Z,42.33
2022-09-26T10:34:35.534Z,42.92
2022-09-26T10:37:19.951Z,38.72
2022-09-26T10:40:10.961Z,38.80
2022-09-26T10:42:40.411Z,38.58
2022-09-26T10:45:16.670Z,38.22
2022-09-26T10:48:29.376Z,39.50
2022-09-26T10:51:27.078Z,40.53
2022-09-26T10:54:04.353Z,47.63
2022-09-26T10:56:34.727Z,44.47
2022-09-26T10:59:04.787Z,44.50
2022-09-26T11:01:33.342Z,44.00
2022-09-26T11:04:15.145Z,43.85
2022-09-26T11:07:06.943Z,45.53
2022-09-26T11:09:42.622Z,43.63
2022-09-26T11:12:31.792Z,44.75
2022-09-26T11:15:11.353Z,47.72
2022-09-26T11:17:45.312Z,47.90
2022-09-26T11:20:23.977Z,44.30
2022-09-26T11:22:56.307Z,49.17
2022-09-26T11:25:26.732Z,44.80
2022-09-26T11:27:59.503Z,46.00
2022-09-26T11:30:42.322Z,45.28
2022-09-26T11:33:13.194Z,43.90
2022-09-26T11:36:18.125Z,43.63
2022-09-26T11:38:48.125Z,41.83
2022-09-26T11:41:42.134Z,43.15
2022-09-26T11:44:31.810Z,42.35
2022-09-26T11:47:57.626Z,43.03
2022-09-26T11:50:41.438Z,41.67
2022-09-26T11:53:29.155Z,42.60
2022-09-26T11:56:15.599Z,42.00
2022-09-26T11:58:46.919Z,40.08
2022-09-26T12:01:20.494Z,41.40
2022-09-26T12:04:05.747Z,39.20
2022-09-26T12:06:36.018Z,39.70
2022-09-26T12:09:18.290Z,40.35
2022-09-26T12:11:53.371Z,40.78
2022-09-26T12:14:36.309Z,39.15
2022-09-26T12:17:08.410Z,39.38
2022-09-26T12:19:40.322Z,34.65
2022-09-26T12:22:28.311Z,37.50
2022-09-26T12:25:08.112Z,38.30
2022-09-26T12:27:38.274Z,37.85
2022-09-26T12:30:10.291Z,36.38
2022-09-26T12:32:58.793Z,37.25
2022-09-26T12:35:36.393Z,35.25
2022-09-26T12:38:33.312Z,36.10
2022-09-26T12:41:12.561Z,36.28
2022-09-26T12:43:54.547Z,36.22
2022-09-26T12:46:33.790Z,32.78
2022-09-26T12:49:13.797Z,34.50
2022-09-26T12:51:44.012Z,34.13
2022-09-26T12:54:33.964Z,35.50
2022-09-26T12:57:07.053Z,36.10
2022-09-26T13:00:09.579Z,33.58
2022-09-26T13:02:47.472Z,32.33
2022-09-26T13:05:36.354Z,31.48
2022-09-26T13:08:08.533Z,31.45
2022-09-26T13:10:41.138Z,31.58
2022-09-26T13:13:37.291Z,31.98
2022-09-26T13:16:13.665Z,30.23
2022-09-26T13:18:46.153Z,31.13
2022-09-26T13:21:15.757Z,31.77
2022-09-26T13:23:47.056Z,31.88
2022-09-26T13:26:16.527Z,31.63
2022-09-26T13:29:12.985Z,31.40
2022-09-26T13:31:40.100Z,29.90
2022-09-26T13:34:12.975Z,30.00
2022-09-26T13:36:42.010Z,31.35
2022-09-26T13:39:12.743Z,31.40
2022-09-26T13:41:44.075Z,29.77
2022-09-26T13:47:15.300Z,28.05
2022-09-26T13:49:51.739Z,30.33
2022-09-26T13:52:25.695Z,27.95
2022-09-26T13:55:00.672Z,28.40
2022-09-26T13:57:39.310Z,29.27
2022-09-26T14:00:40.758Z,28.63
2022-09-26T14:03:52.513Z,27.83
2022-09-26T14:06:31.165Z,25.92
2022-09-26T14:09:18.688Z,25.08
2022-09-26T14:11:49.584Z,26.30
2022-09-26T14:14:39.810Z,26.48
2022-09-26T14:17:41.470Z,24.98
2022-09-26T14:20:16.352Z,24.75
2022-09-26T14:22:52.870Z,24.80
2022-09-26T14:25:55.995Z,23.35
2022-09-26T14:28:32.839Z,24.02
2022-09-26T14:31:37.615Z,21.95
2022-09-26T14:34:23.071Z,21.65
2022-09-26T14:36:52.306Z,21.13
2022-09-26T14:39:34.023Z,20.90
2022-09-26T14:42:10.331Z,20.95
2022-09-26T14:44:39.338Z,19.83
2022-09-26T14:47:09.951Z,20.20
2022-09-26T14:49:38.453Z,20.60
2022-09-26T14:52:11.170Z,20.23
2022-09-26T14:54:42.286Z,19.38
2022-09-26T14:57:22.142Z,19.20
2022-09-26T14:59:50.961Z,18.88
2022-09-26T15:02:29.037Z,18.08
2022-09-26T15:05:04.515Z,19.17
2022-09-26T15:07:35.951Z,17.42
2022-09-26T15:10:10.724Z,18.50
2022-09-26T15:12:41.001Z,18.65
2022-09-26T15:15:17.258Z,17.15
2022-09-26T15:17:49.242Z,17.98
2022-09-26T15:20:19.139Z,17.17
2022-09-26T15:22:47.639Z,17.08
2022-09-26T15:25:25.634Z,18.40
2022-09-26T15:27:55.210Z,16.60
2022-09-26T15:30:27.296Z,16.02
2022-09-26T15:32:57.271Z,17.38
2022-09-26T15:35:27.006Z,16.17
2022-09-26T15:37:58.305Z,15.82
2022-09-26T15:40:28.895Z,17.63
2022-09-26T15:43:09.771Z,16.88
2022-09-26T15:45:58.512Z,17.20
2022-09-26T15:48:29.094Z,15.35
2022-09-26T15:50:59.091Z,15.60
2022-09-26T15:53:28.684Z,15.43
2022-09-26T15:55:59.315Z,15.95
2022-09-26T15:58:30.701Z,15.07
2022-09-26T16:00:58.986Z,16.02
2022-09-26T16:03:41.522Z,15.18
2022-09-26T16:06:15.351Z,13.50
2022-09-26T16:08:43.675Z,13.93
2022-09-26T16:11:13.430Z,14.63
2022-09-26T16:13:46.382Z,13.13
2022-09-26T16:16:15.704Z,14.35
2022-09-26T16:18:47.350Z,13.57
2022-09-26T16:21:19.412Z,13.60
2022-09-26T16:23:48.364Z,12.55
2022-09-26T16:26:25.846Z,13.45
2022-09-26T16:28:55.209Z,12.23
2022-09-26T16:31:31.215Z,14.50
2022-09-26T16:34:01.333Z,12.95
2022-09-26T16:36:30.425Z,12.20
2022-09-26T16:39:00.074Z,13.27
2022-09-26T16:44:26.501Z,13.07
2022-09-26T16:46:59.005Z,12.18
2022-09-26T16:49:32.462Z,14.23
2022-09-26T16:52:12.288Z,11.88
2022-09-26T16:54:40.851Z,12.07
2022-09-26T16:57:11.654Z,12.52
2022-09-26T16:59:39.914Z,12.40
2022-09-26T17:02:08.922Z,11.98
2022-09-26T17:04:37.864Z,12.60
2022-09-26T17:07:09.788Z,12.02
2022-09-26T17:09:41.294Z,12.32
2022-09-26T17:12:16.251Z,11.18
2022-09-26T17:14:44.519Z,12.90
2022-09-26T17:17:16.346Z,11.90
2022-09-26T17:19:45.457Z,10.57
2022-09-26T17:22:15.360Z,11.23
2022-09-26T17:24:44.210Z,10.48
2022-09-26T17:27:15.406Z,11.68
2022-09-26T17:29:45.655Z,10.75
2022-09-26T17:32:15.364Z,11.57
2022-09-26T17:34:44.810Z,10.63
2022-09-26T17:37:13.240Z,10.95
2022-09-26T17:39:41.490Z,11.05
2022-09-26T17:42:10.891Z,11.18
2022-09-26T17:44:41.698Z,11.27
2022-09-26T17:47:11.703Z,11.27
2022-09-26T17:49:39.921Z,10.70
2022-09-26T17:52:16.802Z,10.30
2022-09-26T17:54:45.730Z,10.65
2022-09-26T17:57:15.086Z,9.80
2022-09-26T17:59:45.087Z,10.10
2022-09-26T18:02:18.398Z,10.07
2022-09-26T18:04:47.203Z,10.95
2022-09-26T18:07:16.358Z,9.55
2022-09-26T18:09:44.757Z,10.35
2022-09-26T18:12:18.668Z,9.77
2022-09-26T18:14:48.354Z,10.15
2022-09-26T18:17:18.037Z,9.77
2022-09-26T18:19:46.870Z,10.05
2022-09-26T18:22:16.610Z,10.23
2022-09-26T18:24:45.710Z,9.70
2022-09-26T18:27:14.156Z,10.60
2022-09-26T18:29:43.998Z,11.05
2022-09-26T18:32:18.363Z,10.50
2022-09-26T18:34:46.655Z,12.02
2022-09-26T18:37:15.066Z,11.75
2022-09-26T18:39:43.342Z,13.30
2022-09-26T18:42:12.127Z,12.18
2022-09-26T18:44:43.193Z,11.65
2022-09-26T18:47:15.446Z,15.35
2022-09-26T18:49:44.074Z,10.65
2022-09-26T18:52:15.351Z,11.07
2022-09-26T18:54:45.443Z,11.18
2022-09-26T18:57:31.419Z,11.27
2022-09-26T19:00:00.316Z,13.00
2022-09-26T19:02:32.720Z,13.18
2022-09-26T19:05:02.904Z,16.30
2022-09-26T19:07:33.570Z,14.38
2022-09-26T19:10:01.842Z,13.55
2022-09-26T19:12:31.687Z,16.55
2022-09-26T19:14:59.979Z,17.05
2022-09-26T19:17:29.886Z,16.35
2022-09-26T19:19:58.135Z,17.25
2022-09-26T19:22:27.338Z,22.60
2022-09-26T19:24:56.304Z,16.77
2022-09-26T19:27:25.982Z,18.02
2022-09-26T19:29:56.799Z,19.17
2022-09-26T19:32:25.771Z,21.25
2022-09-26T19:34:56.654Z,16.90
2022-09-26T19:37:25.006Z,24.13
2022-09-26T19:39:53.286Z,22.95
2022-09-26T19:42:21.618Z,19.42
2022-09-26T19:44:51.404Z,19.00
2022-09-26T19:47:20.452Z,20.80
2022-09-26T19:49:48.847Z,26.58
2022-09-26T19:52:19.083Z,26.55
2022-09-26T19:54:47.529Z,27.25
2022-09-26T19:57:16.891Z,28.15
2022-09-26T19:59:45.194Z,27.17
2022-09-26T20:02:15.671Z,29.27
2022-09-26T20:04:44.139Z,28.67
2022-09-26T20:07:13.858Z,28.05
2022-09-26T20:09:43.797Z,27.75
2022-09-26T20:12:12.106Z,28.73
2022-09-26T20:14:40.323Z,29.05
2022-09-26T20:17:14.356Z,30.90
2022-09-26T20:19:45.362Z,33.20
2022-09-26T20:22:16.003Z,28.63
2022-09-26T20:24:45.954Z,29.95
2022-09-26T20:27:18.654Z,28.73
2022-09-26T20:30:04.468Z,29.42
2022-09-26T20:32:32.812Z,29.77
2022-09-26T20:35:01.612Z,30.33
2022-09-26T20:37:31.491Z,28.20
2022-09-26T20:40:01.207Z,31.08
2022-09-26T20:42:29.822Z,29.15
2022-09-26T20:44:58.266Z,30.33
2022-09-26T20:47:26.558Z,30.48
2022-09-26T20:49:56.499Z,28.00
2022-09-26T20:52:26.662Z,35.72
2022-09-26T20:54:55.378Z,30.38
2022-09-26T20:57:25.170Z,38.65
2022-09-26T20:59:53.585Z,29.45
2022-09-26T21:02:27.302Z,29.35
2022-09-26T21:04:55.690Z,28.92
2022-09-26T21:07:23.892Z,28.45
2022-09-26T21:09:52.398Z,29.35
2022-09-26T21:12:22.525Z,28.48
2022-09-26T21:14:52.537Z,26.55
2022-09-26T21:17:22.297Z,27.95
2022-09-26T21:19:51.525Z,31.45
2022-09-26T21:22:39.694Z,28.38
2022-09-26T21:25:11.232Z,25.60
2022-09-26T21:27:39.687Z,26.83
2022-09-26T21:30:13.788Z,28.40
2022-09-26T21:32:44.452Z,29.75
2022-09-26T21:35:14.699Z,29.10
2022-09-26T21:37:43.409Z,27.25
2022-09-26T21:40:13.181Z,28.30
2022-09-26T21:42:41.550Z,28.48
2022-09-26T21:45:12.342Z,27.42
2022-09-26T21:47:40.559Z,26.83
2022-09-26T21:50:09.715Z,25.58
2022-09-26T21:52:40.764Z,28.05
2022-09-26T21:55:10.592Z,26.88
2022-09-26T21:57:40.034Z,28.00
2022-09-26T22:00:12.657Z,24.95
2022-09-26T22:02:44.130Z,25.23
2022-09-26T22:05:13.017Z,26.80
2022-09-26T22:07:41.269Z,25.95
2022-09-26T22:10:09.854Z,24.63
2022-09-26T22:12:38.255Z,25.05
2022-09-26T22:15:08.170Z,27.48
2022-09-26T22:17:38.078Z,24.08
2022-09-26T22:20:07.057Z,24.83
2022-09-26T22:22:35.443Z,23.33
2022-09-26T22:25:04.468Z,24.90
2022-09-26T22:27:32.748Z,25.40
2022-09-26T22:30:01.099Z,23.63
2022-09-26T22:32:29.446Z,22.70
2022-09-26T22:34:59.246Z,25.70
2022-09-26T22:37:27.715Z,24.85
2022-09-26T22:39:55.918Z,24.50
2022-09-26T22:42:24.221Z,24.50
2022-09-26T22:45:12.772Z,23.40
2022-09-26T22:47:43.064Z,24.92
2022-09-26T22:50:12.792Z,22.58
2022-09-26T22:52:41.007Z,24.50
2022-09-26T22:55:09.863Z,23.67
2022-09-26T22:57:38.065Z,28.35
2022-09-26T23:00:07.444Z,25.52
2022-09-26T23:02:35.761Z,24.50
2022-09-26T23:05:04.193Z,25.00
2022-09-26T23:07:33.918Z,22.60
2022-09-26T23:10:02.183Z,23.85
2022-09-26T23:12:31.817Z,25.35
2022-09-26T23:15:00.141Z,25.02
2022-09-26T23:17:28.358Z,21.50
2022-09-26T23:19:56.666Z,24.73
2022-09-26T23:22:24.868Z,21.38
2022-09-26T23:24:54.584Z,22.88
2022-09-26T23:27:22.912Z,23.73
2022-09-26T23:29:51.191Z,22.38
2022-09-26T23:32:19.366Z,22.42
2022-09-26T23:34:47.762Z,21.45
2022-09-26T23:37:15.957Z,23.10
2022-09-26T23:39:44.208Z,21.73
2022-09-26T23:42:14.051Z,23.67
2022-09-26T23:44:42.307Z,21.15
2022-09-26T23:47:10.580Z,21.55
2022-09-26T23:49:38.874Z,26.15
2022-09-26T23:52:07.085Z,23.63
2022-09-26T23:54:35.357Z,21.75
2022-09-26T23:57:03.535Z,21.83
2022-09-26T23:59:33.224Z,19.38
